Time;durP1;ratioP1;P1;durP2;ratioP2;P2;SDS_P1;SDS_P2;PMS_P1;PMS_P2;Temp;Humidity;BMP_temperature;BMP_pressure;BME280_temperature;BME280_humidity;BME280_pressure;Samples;Min_cycle;Max_cycle;Signal;HPM_P1;HPM_P2
2021/12/19 00:08:27;;;;;;;33.17;7.82;;;6.80;99.90;;;;;;5054095;28;20075;-68
2021/12/19 00:09:27;;;;;;;18.60;2.58;;;6.70;99.90;;;;;;5054184;28;20091;-68
2021/12/19 00:11:53;;;;;;;22.38;3.15;;;6.70;99.90;;;;;;5053927;28;20099;-68
2021/12/19 00:14:20;;;;;;;17.65;3.63;;;6.70;99.90;;;;;;5054061;28;20051;-67
2021/12/19 00:16:46;;;;;;;14.73;3.03;;;6.70;99.90;;;;;;5053940;28;20027;-67
2021/12/19 00:19:11;;;;;;;12.23;2.03;;;6.60;99.90;;;;;;5053894;28;20369;-68
2021/12/19 00:21:39;;;;;;;8.02;1.73;;;6.60;99.90;;;;;;5054075;28;20040;-67
2021/12/19 00:24:05;;;;;;;14.82;2.22;;;6.50;99.90;;;;;;5053960;28;20103;-68
2021/12/19 00:26:31;;;;;;;17.05;2.83;;;6.50;99.90;;;;;;5053756;28;20154;-67
2021/12/19 00:28:58;;;;;;;12.18;2.08;;;6.50;99.90;;;;;;5053162;28;20044;-68
2021/12/19 00:31:24;;;;;;;9.95;1.85;;;6.40;99.90;;;;;;5053600;28;20017;-68
2021/12/19 00:33:49;;;;;;;9.57;2.88;;;6.40;99.90;;;;;;5053672;28;20365;-67
2021/12/19 00:36:15;;;;;;;15.95;2.45;;;6.40;99.90;;;;;;5053639;28;20035;-68
2021/12/19 00:38:40;;;;;;;18.33;3.45;;;6.40;99.90;;;;;;5053862;28;20025;-67
2021/12/19 00:41:07;;;;;;;17.48;3.08;;;6.40;99.90;;;;;;5053446;28;20035;-68
2021/12/19 00:43:36;;;;;;;17.85;2.95;;;6.40;99.90;;;;;;5053984;28;20381;-67
2021/12/19 00:46:07;;;;;;;14.07;3.20;;;6.50;99.90;;;;;;5053229;28;20029;-68
2021/12/19 00:48:42;;;;;;;20.58;3.50;;;6.50;99.90;;;;;;5053491;28;20043;-67
2021/12/19 00:51:09;;;;;;;24.17;4.60;;;6.50;99.90;;;;;;5053340;28;20055;-67
2021/12/19 00:53:35;;;;;;;17.17;3.80;;;6.60;99.90;;;;;;5053256;28;20028;-68
2021/12/19 00:56:02;;;;;;;18.73;5.47;;;6.60;99.90;;;;;;5053324;28;20495;-67
2021/12/19 00:58:28;;;;;;;27.08;5.93;;;6.50;99.90;;;;;;5053257;28;20040;-67
2021/12/19 01:00:53;;;;;;;30.02;4.95;;;6.60;99.90;;;;;;5053229;28;20082;-67
2021/12/19 01:03:21;;;;;;;26.38;4.90;;;6.60;99.90;;;;;;5053168;28;20055;-67
2021/12/19 01:05:46;;;;;;;28.38;5.47;;;6.60;99.90;;;;;;5053320;28;20052;-67
2021/12/19 01:08:12;;;;;;;24.27;4.57;;;6.70;99.90;;;;;;5053153;28;20029;-67
2021/12/19 01:10:40;;;;;;;33.85;5.50;;;6.70;99.90;;;;;;5053119;28;20477;-67
2021/12/19 01:13:06;;;;;;;38.55;6.38;;;6.70;99.90;;;;;;5052992;28;20477;-67
2021/12/19 01:15:32;;;;;;;24.70;4.35;;;6.70;99.90;;;;;;5053193;28;20110;-68
2021/12/19 01:17:59;;;;;;;27.92;4.32;;;6.70;99.90;;;;;;5052980;28;20025;-67
2021/12/19 01:20:27;;;;;;;28.38;5.05;;;6.70;99.90;;;;;;5053322;28;20555;-68
2021/12/19 01:22:53;;;;;;;18.50;3.05;;;6.70;99.90;;;;;;5053216;28;20045;-67
2021/12/19 01:25:19;;;;;;;28.65;3.90;;;6.70;99.90;;;;;;5052910;28;20037;-68
2021/12/19 01:27:45;;;;;;;19.58;3.28;;;6.60;99.90;;;;;;5052974;28;20032;-67
2021/12/19 01:30:12;;;;;;;13.30;3.13;;;6.60;99.90;;;;;;5053185;28;20392;-67
2021/12/19 01:32:39;;;;;;;20.58;4.00;;;6.70;99.90;;;;;;5053023;28;20021;-67
2021/12/19 01:35:07;;;;;;;14.27;2.60;;;6.70;99.90;;;;;;5052891;28;20021;-68
2021/12/19 01:37:32;;;;;;;17.38;3.15;;;6.70;99.90;;;;;;5052764;28;20109;-68
2021/12/19 01:39:58;;;;;;;18.95;2.53;;;6.70;99.90;;;;;;5053067;28;20064;-68
2021/12/19 01:42:30;;;;;;;23.45;3.75;;;6.70;99.90;;;;;;5055259;28;20094;-68
2021/12/19 01:44:56;;;;;;;18.85;2.83;;;6.70;99.90;;;;;;5057074;28;20040;-67
2021/12/19 01:47:21;;;;;;;28.75;4.85;;;6.80;99.90;;;;;;5056967;28;20017;-68
2021/12/19 01:49:47;;;;;;;30.50;5.25;;;6.80;99.90;;;;;;5056705;28;20051;-67
2021/12/19 01:52:13;;;;;;;26.48;4.50;;;6.70;99.90;;;;;;5056634;28;20106;-67
2021/12/19 01:54:38;;;;;;;36.30;5.80;;;6.80;99.90;;;;;;5056890;28;20032;-67
2021/12/19 01:57:04;;;;;;;33.47;5.22;;;6.80;99.90;;;;;;5056798;28;20029;-67
2021/12/19 01:59:30;;;;;;;36.85;5.80;;;6.80;99.90;;;;;;5056570;28;20561;-68
2021/12/19 02:01:56;;;;;;;31.60;5.57;;;6.80;99.90;;;;;;5056428;28;20033;-67
2021/12/19 02:04:22;;;;;;;38.22;5.90;;;6.80;99.90;;;;;;5056516;28;20480;-67
2021/12/19 02:06:48;;;;;;;55.17;7.82;;;6.80;99.90;;;;;;5056663;28;20083;-67
2021/12/19 02:09:15;;;;;;;51.33;5.60;;;6.80;99.90;;;;;;5056386;28;20035;-67
2021/12/19 02:11:42;;;;;;;40.40;8.27;;;6.80;99.90;;;;;;5056219;28;20459;-67
2021/12/19 02:14:10;;;;;;;37.08;6.25;;;6.80;99.90;;;;;;5056243;28;20025;-68
2021/12/19 02:16:38;;;;;;;33.97;5.15;;;6.90;99.90;;;;;;5056482;28;20024;-67
2021/12/19 02:19:05;;;;;;;34.92;5.53;;;6.90;99.90;;;;;;5055973;28;20063;-68
2021/12/19 02:21:31;;;;;;;39.88;6.20;;;6.90;99.90;;;;;;5056023;28;20029;-68
2021/12/19 02:24:03;;;;;;;27.35;4.78;;;7.00;99.90;;;;;;5056064;28;20025;-68
2021/12/19 02:26:29;;;;;;;30.65;5.55;;;7.00;99.90;;;;;;5056254;28;20040;-67
2021/12/19 02:28:54;;;;;;;29.38;4.40;;;7.00;99.90;;;;;;5056122;28;20025;-67
2021/12/19 02:31:21;;;;;;;26.65;6.13;;;7.00;99.90;;;;;;5056148;28;20174;-67
2021/12/19 02:34:01;;;;;;;34.55;5.72;;;7.00;99.90;;;;;;5056138;28;20029;-67
2021/12/19 02:36:45;;;;;;;34.15;5.13;;;7.00;99.90;;;;;;5055852;28;20391;-67
2021/12/19 02:50:06;;;;;;;25.52;3.88;;;7.10;99.90;;;;;;5055734;28;20171;-68
2021/12/19 02:52:31;;;;;;;23.73;3.53;;;7.20;99.90;;;;;;5054865;28;20093;-68
2021/12/19 02:54:57;;;;;;;28.58;3.85;;;7.20;99.90;;;;;;5055570;28;20112;-68
2021/12/19 02:57:23;;;;;;;29.17;4.80;;;7.20;99.90;;;;;;5055639;28;20021;-68
2021/12/19 02:59:48;;;;;;;24.83;4.78;;;7.20;99.90;;;;;;5055603;28;20365;-68
2021/12/19 03:02:16;;;;;;;23.15;3.65;;;7.30;99.90;;;;;;5055569;28;20021;-67
2021/12/19 03:05:02;;;;;;;24.20;4.03;;;7.30;99.90;;;;;;5055529;28;20025;-68
2021/12/19 03:07:29;;;;;;;20.17;3.80;;;7.30;99.90;;;;;;5055221;28;20017;-67
2021/12/19 03:13:02;;;;;;;23.25;4.05;;;7.40;99.90;;;;;;5055150;28;20032;-68
2021/12/19 03:18:14;;;;;;;38.65;5.55;;;7.40;99.90;;;;;;5055431;28;20106;-67
2021/12/19 03:20:42;;;;;;;25.95;3.80;;;7.40;99.90;;;;;;5055224;28;20104;-67
2021/12/19 03:23:09;;;;;;;36.80;5.85;;;7.40;99.90;;;;;;5055160;28;20029;-68
2021/12/19 03:25:35;;;;;;;26.40;4.18;;;7.40;99.90;;;;;;5055119;28;20120;-68
2021/12/19 03:28:04;;;;;;;22.88;4.53;;;7.40;99.90;;;;;;5054883;28;20537;-67
2021/12/19 03:30:31;;;;;;;29.88;4.22;;;7.40;99.90;;;;;;5054844;28;20399;-67
2021/12/19 03:32:57;;;;;;;29.65;4.72;;;7.40;99.90;;;;;;5054702;28;20028;-68
2021/12/19 03:35:24;;;;;;;42.53;5.85;;;7.40;99.90;;;;;;5055049;28;20407;-68
2021/12/19 03:37:51;;;;;;;36.90;6.28;;;7.40;99.90;;;;;;5054615;28;20071;-68
2021/12/19 03:40:23;;;;;;;31.63;4.43;;;7.40;99.90;;;;;;5054565;28;20021;-68
2021/12/19 03:42:51;;;;;;;33.60;4.50;;;7.50;99.90;;;;;;5054504;28;20033;-67
2021/12/19 03:45:19;;;;;;;28.35;5.15;;;7.50;99.90;;;;;;5054763;28;20464;-68
2021/12/19 03:47:46;;;;;;;32.35;5.72;;;7.40;99.90;;;;;;5054434;28;20060;-67
2021/12/19 03:50:16;;;;;;;28.05;4.78;;;7.40;99.90;;;;;;5054482;28;20124;-68
2021/12/19 03:52:42;;;;;;;44.58;4.75;;;7.50;99.90;;;;;;5054222;28;20404;-68
2021/12/19 03:55:08;;;;;;;29.02;5.40;;;7.50;99.90;;;;;;5054363;28;20033;-68
2021/12/19 03:57:34;;;;;;;23.38;3.90;;;7.50;99.90;;;;;;5054284;28;20032;-67
2021/12/19 03:59:59;;;;;;;37.97;5.05;;;7.50;99.90;;;;;;5054519;28;20408;-67
2021/12/19 04:02:26;;;;;;;32.88;4.03;;;7.50;99.90;;;;;;5054150;28;20028;-67
2021/12/19 04:04:53;;;;;;;19.70;3.78;;;7.40;99.90;;;;;;5053169;28;20017;-68
2021/12/19 04:07:19;;;;;;;29.30;5.18;;;7.50;99.90;;;;;;5054130;28;20066;-68
2021/12/19 04:09:45;;;;;;;28.85;4.20;;;7.50;99.90;;;;;;5054380;28;20029;-68
2021/12/19 04:12:10;;;;;;;27.17;4.38;;;7.50;99.90;;;;;;5053926;28;20033;-68
2021/12/19 04:14:36;;;;;;;33.60;4.07;;;7.50;99.90;;;;;;5054228;28;20025;-68
2021/12/19 04:17:02;;;;;;;31.42;4.85;;;7.50;99.90;;;;;;5053949;28;20025;-67
2021/12/19 04:19:29;;;;;;;19.85;3.40;;;7.50;99.90;;;;;;5054221;28;20262;-68
2021/12/19 04:21:59;;;;;;;23.52;4.28;;;7.60;99.90;;;;;;5053962;28;20055;-68
2021/12/19 04:24:25;;;;;;;30.63;3.33;;;7.60;99.90;;;;;;5053836;28;20028;-68
2021/12/19 04:26:51;;;;;;;23.75;4.18;;;7.60;99.90;;;;;;5053426;28;20503;-68
2021/12/19 04:29:16;;;;;;;27.17;4.03;;;7.60;99.90;;;;;;5053788;28;20033;-68
2021/12/19 04:31:42;;;;;;;22.40;4.30;;;7.50;99.90;;;;;;5053764;28;20017;-68
2021/12/19 04:34:07;;;;;;;31.08;3.88;;;7.50;99.90;;;;;;5053693;28;20106;-68
2021/12/19 04:36:38;;;;;;;36.22;4.18;;;7.60;99.90;;;;;;5053574;28;20021;-68
2021/12/19 04:55:25;;;;;;;41.83;4.40;;;7.60;99.90;;;;;;5053951;28;20487;-68
2021/12/19 04:58:00;;;;;;;31.45;3.85;;;7.70;99.90;;;;;;5053636;28;20177;-68
2021/12/19 05:00:45;;;;;;;30.90;4.05;;;7.60;99.90;;;;;;5035471;28;20029;-68
2021/12/19 05:04:06;;;;;;;33.00;5.05;;;7.60;99.90;;;;;;5053199;28;20373;-68
2021/12/19 05:14:15;;;;;;;41.97;5.07;;;7.50;99.90;;;;;;5053476;28;20112;-68
2021/12/19 05:16:44;;;;;;;35.75;4.05;;;7.60;99.90;;;;;;5052855;28;20099;-68
2021/12/19 05:19:41;;;;;;;21.23;3.75;;;7.60;99.90;;;;;;5052991;28;20021;-68
2021/12/19 05:22:07;;;;;;;43.80;4.55;;;7.50;99.90;;;;;;5035140;28;20021;-68
2021/12/19 05:27:01;;;;;;;39.38;5.07;;;7.50;99.90;;;;;;5053270;28;20025;-68
2021/12/19 05:29:27;;;;;;;45.65;4.90;;;7.40;99.90;;;;;;5053220;28;20031;-68
2021/12/19 05:31:52;;;;;;;37.95;4.43;;;7.30;99.90;;;;;;5052823;28;20021;-68
2021/12/19 05:34:18;;;;;;;31.95;3.75;;;7.30;99.90;;;;;;5053725;28;20025;-68
2021/12/19 05:47:24;;;;;;;28.35;4.95;;;7.30;99.90;;;;;;5053034;28;20440;-68
2021/12/19 05:49:50;;;;;;;27.98;5.30;;;7.30;99.90;;;;;;5052731;28;20112;-68
2021/12/19 05:52:16;;;;;;;27.83;4.05;;;7.30;99.90;;;;;;5052590;28;20112;-68
2021/12/19 05:54:42;;;;;;;29.85;4.57;;;7.30;99.90;;;;;;5052984;28;20040;-68
2021/12/19 05:57:09;;;;;;;27.10;4.07;;;7.40;99.90;;;;;;5052627;28;20079;-68
2021/12/19 05:59:35;;;;;;;38.03;4.60;;;7.50;99.90;;;;;;5052655;28;20025;-68
2021/12/19 06:02:01;;;;;;;29.13;5.15;;;7.50;99.90;;;;;;5052521;28;20028;-68
2021/12/19 06:04:26;;;;;;;42.70;6.85;;;7.60;99.90;;;;;;5052538;28;20519;-68
2021/12/19 06:06:52;;;;;;;28.10;4.95;;;7.60;99.90;;;;;;5052704;28;20017;-68
2021/12/19 06:09:18;;;;;;;27.75;3.83;;;7.60;99.90;;;;;;5052598;28;20151;-68
2021/12/19 06:11:43;;;;;;;35.20;4.35;;;7.60;99.90;;;;;;5052748;28;20104;-68
2021/12/19 06:14:09;;;;;;;23.48;3.20;;;7.70;99.90;;;;;;5053106;28;20412;-68
2021/12/19 06:16:35;;;;;;;29.63;5.28;;;7.60;99.90;;;;;;5052543;28;20025;-68
2021/12/19 06:19:00;;;;;;;26.20;3.72;;;7.70;99.90;;;;;;5052477;28;20066;-68
2021/12/19 06:21:26;;;;;;;73.72;18.85;;;7.70;99.90;;;;;;5052438;28;20032;-68
2021/12/19 06:23:52;;;;;;;51.78;5.78;;;7.70;99.90;;;;;;5052602;28;20488;-68
2021/12/19 06:26:18;;;;;;;29.23;5.95;;;7.70;99.90;;;;;;5052683;28;20075;-68
2021/12/19 06:28:43;;;;;;;22.98;4.40;;;7.70;99.90;;;;;;5055466;28;20039;-68
2021/12/19 06:31:09;;;;;;;27.35;5.97;;;7.70;99.90;;;;;;5056175;28;20033;-68
2021/12/19 06:33:35;;;;;;;32.97;4.35;;;7.80;99.90;;;;;;5055898;28;20366;-68
2021/12/19 06:36:00;;;;;;;26.63;4.25;;;7.70;99.90;;;;;;5055901;28;20037;-68
2021/12/19 06:38:26;;;;;;;26.17;4.88;;;7.70;99.90;;;;;;5056130;28;20075;-68
2021/12/19 06:40:52;;;;;;;36.70;5.10;;;7.80;99.90;;;;;;5055745;28;20033;-68
2021/12/19 06:43:17;;;;;;;60.30;21.08;;;7.80;99.90;;;;;;5055753;28;20036;-68
2021/12/19 06:45:43;;;;;;;35.72;12.82;;;7.80;99.90;;;;;;5055910;28;20033;-68
2021/12/19 06:48:08;;;;;;;39.33;8.70;;;7.80;99.90;;;;;;5055958;28;20029;-68
2021/12/19 06:50:34;;;;;;;32.35;6.28;;;7.80;99.90;;;;;;5055855;28;20047;-68
2021/12/19 06:53:00;;;;;;;41.10;10.02;;;7.80;99.90;;;;;;5055396;28;20052;-68
2021/12/19 06:55:25;;;;;;;27.15;6.00;;;7.80;99.90;;;;;;5055785;28;20021;-68
2021/12/19 06:57:51;;;;;;;35.33;8.32;;;7.80;99.90;;;;;;5055728;28;20477;-68
2021/12/19 07:00:20;;;;;;;27.65;4.25;;;7.80;99.90;;;;;;5055737;28;20028;-68
2021/12/19 07:02:46;;;;;;;24.70;5.93;;;7.80;99.90;;;;;;5055417;28;20036;-68
2021/12/19 07:05:11;;;;;;;22.98;4.93;;;7.90;99.90;;;;;;5055497;28;20033;-68
2021/12/19 07:07:37;;;;;;;31.00;5.20;;;7.90;99.90;;;;;;5055282;28;20027;-68
2021/12/19 07:10:05;;;;;;;35.38;5.10;;;7.90;99.90;;;;;;5055505;28;20029;-68
2021/12/19 07:12:30;;;;;;;36.92;5.03;;;7.80;99.90;;;;;;5055112;28;20073;-67
2021/12/19 07:14:58;;;;;;;26.75;3.55;;;7.80;99.90;;;;;;5037263;28;20443;-68
2021/12/19 07:17:24;;;;;;;27.10;4.85;;;7.80;99.90;;;;;;5055369;28;20032;-68
2021/12/19 07:19:50;;;;;;;57.10;10.32;;;7.80;99.90;;;;;;5055327;28;20029;-68
2021/12/19 07:22:17;;;;;;;36.00;8.13;;;7.90;99.90;;;;;;5054990;28;20431;-68
2021/12/19 07:24:45;;;;;;;60.72;14.05;;;7.80;99.90;;;;;;5054863;28;20104;-68
2021/12/19 07:27:11;;;;;;;55.08;11.77;;;7.80;99.90;;;;;;5054919;28;20024;-68
2021/12/19 07:29:37;;;;;;;43.70;10.60;;;7.80;99.90;;;;;;5055195;28;20070;-68
2021/12/19 07:32:03;;;;;;;37.95;7.90;;;7.80;99.90;;;;;;5054770;28;20021;-68
2021/12/19 07:34:32;;;;;;;33.15;5.88;;;7.90;99.90;;;;;;5054974;28;20025;-68
2021/12/19 07:36:58;;;;;;;34.95;6.28;;;7.90;99.90;;;;;;5054846;28;20163;-68
2021/12/19 07:39:38;;;;;;;27.15;4.50;;;7.80;99.90;;;;;;5036735;28;20029;-68
2021/12/19 07:42:07;;;;;;;35.33;8.90;;;7.90;99.90;;;;;;5054859;28;20377;-68
2021/12/19 07:44:33;;;;;;;40.83;5.28;;;7.90;99.90;;;;;;5054765;28;20032;-68
2021/12/19 07:46:59;;;;;;;50.70;8.10;;;7.90;99.90;;;;;;5054557;28;20489;-68
2021/12/19 07:49:24;;;;;;;37.90;6.07;;;7.90;99.90;;;;;;5054522;28;20096;-68
2021/12/19 07:51:50;;;;;;;29.67;4.00;;;7.90;99.90;;;;;;5054233;28;20033;-68
2021/12/19 07:54:15;;;;;;;26.48;4.55;;;7.90;99.90;;;;;;5054686;28;20020;-68
2021/12/19 07:56:41;;;;;;;57.00;6.13;;;7.90;99.90;;;;;;5054373;28;20036;-68
2021/12/19 07:59:07;;;;;;;38.85;5.30;;;7.90;99.90;;;;;;5054288;28;20071;-68
2021/12/19 08:01:33;;;;;;;26.38;3.92;;;7.90;99.90;;;;;;5054231;28;20432;-68
2021/12/19 08:03:59;;;;;;;42.38;5.72;;;8.00;99.90;;;;;;5054202;28;20103;-68
2021/12/19 08:06:24;;;;;;;26.52;5.30;;;8.00;99.90;;;;;;5054126;28;20112;-68
2021/12/19 08:08:53;;;;;;;40.90;4.97;;;7.90;99.90;;;;;;5054167;28;20021;-68
2021/12/19 08:11:42;;;;;;;39.20;5.47;;;7.90;99.90;;;;;;5054594;28;20476;-68
2021/12/19 08:14:13;;;;;;;47.13;6.32;;;8.00;99.90;;;;;;5054116;28;20433;-68
2021/12/19 08:16:40;;;;;;;56.40;10.32;;;8.00;99.90;;;;;;5054295;28;20032;-68
2021/12/19 08:19:06;;;;;;;39.30;5.72;;;8.00;99.90;;;;;;5053920;28;20074;-68
2021/12/19 08:21:31;;;;;;;46.85;5.45;;;8.00;99.90;;;;;;5053864;28;20029;-68
2021/12/19 08:24:02;;;;;;;44.47;6.13;;;7.90;99.90;;;;;;5054035;28;20036;-68
2021/12/19 08:26:29;;;;;;;84.80;16.08;;;7.90;99.90;;;;;;5053785;28;20017;-68
2021/12/19 08:28:55;;;;;;;51.35;10.70;;;7.90;99.90;;;;;;5053719;28;20028;-68
2021/12/19 08:31:21;;;;;;;42.25;7.32;;;8.00;99.90;;;;;;5053548;28;20029;-67
2021/12/19 08:33:47;;;;;;;36.65;4.28;;;8.00;99.90;;;;;;5053702;28;20483;-68
2021/12/19 08:36:14;;;;;;;40.83;6.63;;;8.00;99.90;;;;;;5053618;28;20025;-67
2021/12/19 08:38:39;;;;;;;34.00;5.57;;;8.00;99.90;;;;;;5053572;28;20036;-67
2021/12/19 08:41:05;;;;;;;35.97;5.50;;;8.00;99.90;;;;;;5053496;28;20040;-68
2021/12/19 08:43:31;;;;;;;31.75;4.15;;;8.00;99.90;;;;;;5053439;28;20100;-67
2021/12/19 08:45:57;;;;;;;34.88;4.60;;;8.00;99.90;;;;;;5053715;28;20083;-68
2021/12/19 08:48:23;;;;;;;41.50;5.82;;;7.90;99.90;;;;;;5053401;28;20143;-68
2021/12/19 08:50:48;;;;;;;50.28;7.03;;;8.00;99.90;;;;;;5052944;28;20039;-68
2021/12/19 08:53:15;;;;;;;36.65;5.88;;;8.00;99.90;;;;;;5053156;28;20074;-68
2021/12/19 08:55:41;;;;;;;36.78;6.60;;;8.00;99.90;;;;;;5053346;28;20033;-68
2021/12/19 08:58:06;;;;;;;42.92;9.05;;;8.00;99.90;;;;;;5053331;28;20029;-68
2021/12/19 09:00:33;;;;;;;47.22;8.52;;;8.00;99.90;;;;;;5053250;28;20029;-68
2021/12/19 09:02:59;;;;;;;42.58;6.03;;;8.00;99.90;;;;;;5053134;28;20029;-68
2021/12/19 09:05:28;;;;;;;43.55;6.10;;;8.00;99.90;;;;;;5053118;28;20036;-68
2021/12/19 09:07:54;;;;;;;41.97;5.45;;;8.00;99.90;;;;;;5053440;28;20094;-68
2021/12/19 09:10:20;;;;;;;40.92;5.18;;;8.00;99.90;;;;;;5053183;28;20097;-68
2021/12/19 09:12:46;;;;;;;49.95;6.03;;;8.00;99.90;;;;;;5053192;28;20021;-68
2021/12/19 09:15:12;;;;;;;44.53;5.65;;;8.10;99.90;;;;;;5053128;28;20033;-68
2021/12/19 09:17:37;;;;;;;41.72;6.82;;;8.10;99.90;;;;;;5053077;28;20032;-68
2021/12/19 09:20:06;;;;;;;40.35;8.43;;;8.10;99.90;;;;;;5053290;28;20025;-68
2021/12/19 09:22:31;;;;;;;43.95;6.32;;;8.10;99.90;;;;;;5053176;28;20090;-68
2021/12/19 09:24:57;;;;;;;50.30;6.13;;;8.10;99.90;;;;;;5052913;28;20033;-68
2021/12/19 09:27:23;;;;;;;46.25;6.32;;;8.10;99.90;;;;;;5052796;28;20029;-68
2021/12/19 09:29:48;;;;;;;37.80;5.72;;;8.10;99.90;;;;;;5052598;28;20369;-68
2021/12/19 09:32:14;;;;;;;47.05;7.45;;;8.10;99.90;;;;;;5052842;28;20393;-67
2021/12/19 09:34:39;;;;;;;42.58;4.82;;;8.10;99.90;;;;;;5052959;28;20510;-67
2021/12/19 09:37:05;;;;;;;49.13;9.57;;;8.10;99.90;;;;;;5052903;28;20434;-67
2021/12/19 09:39:32;;;;;;;36.20;6.47;;;8.10;99.90;;;;;;5052863;28;20392;-67
2021/12/19 09:42:06;;;;;;;30.33;5.25;;;8.10;99.90;;;;;;5052729;28;20443;-68
2021/12/19 09:44:33;;;;;;;49.28;5.50;;;8.10;99.90;;;;;;5053013;28;20029;-67
2021/12/19 09:46:58;;;;;;;38.33;5.25;;;8.10;99.90;;;;;;5053339;28;20075;-67
2021/12/19 09:49:24;;;;;;;46.55;6.25;;;8.10;99.90;;;;;;5052779;28;20017;-67
2021/12/19 09:51:50;;;;;;;50.75;5.88;;;8.10;99.90;;;;;;5052563;28;20037;-68
2021/12/19 09:54:17;;;;;;;49.92;6.80;;;8.10;99.90;;;;;;5053057;28;20578;-67
2021/12/19 09:56:43;;;;;;;52.65;6.13;;;8.10;99.90;;;;;;5052715;28;20499;-68
2021/12/19 09:59:18;;;;;;;53.08;6.35;;;8.10;99.90;;;;;;5052676;28;20029;-67
2021/12/19 10:01:45;;;;;;;50.25;6.53;;;8.10;99.90;;;;;;5052936;28;20033;-68
2021/12/19 10:04:36;;;;;;;38.25;6.28;;;8.10;99.90;;;;;;5056586;28;20392;-67
2021/12/19 10:07:20;;;;;;;37.33;5.70;;;8.10;99.90;;;;;;5056412;28;20053;-68
2021/12/19 10:09:54;;;;;;;57.00;6.85;;;8.10;99.90;;;;;;5056758;28;20100;-68
2021/12/19 10:12:35;;;;;;;38.28;5.88;;;8.10;99.90;;;;;;5056526;28;20068;-67
2021/12/19 10:15:08;;;;;;;43.25;5.50;;;8.10;99.90;;;;;;5056530;28;20028;-68
2021/12/19 10:17:34;;;;;;;38.08;4.85;;;8.10;99.90;;;;;;5056506;28;20025;-67
2021/12/19 10:20:02;;;;;;;36.00;5.05;;;8.10;99.90;;;;;;5056186;28;20480;-67
2021/12/19 10:22:34;;;;;;;37.72;6.03;;;8.10;99.90;;;;;;5056380;28;20073;-67
2021/12/19 10:25:13;;;;;;;42.05;5.43;;;8.30;99.90;;;;;;5056085;28;20447;-68
2021/12/19 10:27:43;;;;;;;34.33;4.20;;;8.30;99.90;;;;;;5056082;28;20021;-68
2021/12/19 10:30:12;;;;;;;41.72;4.72;;;8.30;99.90;;;;;;5056576;28;20032;-68
2021/12/19 10:32:50;;;;;;;27.77;4.47;;;8.30;99.90;;;;;;5055903;28;20477;-68
2021/12/19 10:35:22;;;;;;;28.17;4.82;;;8.30;99.90;;;;;;5056439;28;20029;-68
2021/12/19 10:37:48;;;;;;;51.75;5.88;;;8.30;99.90;;;;;;5055917;28;20044;-68
2021/12/19 10:40:14;;;;;;;32.25;4.78;;;8.30;99.90;;;;;;5055854;28;20401;-68
2021/12/19 10:42:46;;;;;;;35.92;4.97;;;8.40;99.90;;;;;;5055715;28;20190;-68
2021/12/19 10:45:32;;;;;;;28.13;4.93;;;8.40;99.90;;;;;;5056028;28;20036;-68
2021/12/19 10:48:15;;;;;;;32.03;4.50;;;8.40;99.90;;;;;;5055734;28;20024;-68
2021/12/19 10:50:53;;;;;;;30.40;5.07;;;8.40;99.90;;;;;;5055289;28;20015;-70
2021/12/19 10:53:24;;;;;;;38.40;6.05;;;8.40;99.90;;;;;;5055392;28;20068;-68
2021/12/19 10:55:51;;;;;;;31.23;4.25;;;8.40;99.90;;;;;;5055860;28;20468;-68
2021/12/19 10:58:39;;;;;;;44.90;5.07;;;8.40;99.90;;;;;;5055791;28;20059;-68
2021/12/19 11:01:06;;;;;;;28.98;4.65;;;8.40;99.90;;;;;;5053403;28;20036;-68
2021/12/19 11:03:41;;;;;;;28.63;4.28;;;8.40;99.90;;;;;;5035481;28;20037;-68
2021/12/19 11:06:14;;;;;;;23.73;3.83;;;8.40;99.90;;;;;;5035662;28;20017;-68
2021/12/19 11:08:42;;;;;;;36.45;4.20;;;8.40;99.90;;;;;;5035404;28;20014;-68
2021/12/19 11:11:09;;;;;;;43.88;5.80;;;8.40;99.90;;;;;;5035253;28;20168;-68
2021/12/19 11:13:35;;;;;;;40.95;5.35;;;8.40;99.90;;;;;;5035135;28;20022;-68
2021/12/19 11:16:02;;;;;;;28.67;4.40;;;8.40;99.90;;;;;;5035802;28;20208;-68
2021/12/19 11:18:27;;;;;;;34.13;5.82;;;8.40;99.90;;;;;;5035206;28;20026;-68
2021/12/19 11:20:53;;;;;;;35.78;5.03;;;8.30;99.90;;;;;;5035153;28;20401;-67
2021/12/19 11:23:19;;;;;;;33.03;5.25;;;8.30;99.90;;;;;;5035379;28;20091;-68
2021/12/19 11:25:45;;;;;;;33.72;5.05;;;8.30;99.90;;;;;;5034975;28;20032;-68
2021/12/19 11:28:11;;;;;;;39.65;4.47;;;8.30;99.90;;;;;;5035273;28;20108;-67
2021/12/19 11:30:37;;;;;;;33.70;5.43;;;8.30;99.90;;;;;;5035301;28;20022;-67
2021/12/19 11:33:32;;;;;;;35.90;5.50;;;8.20;99.90;;;;;;5035090;28;20519;-67
2021/12/19 11:36:00;;;;;;;39.60;4.38;;;8.30;99.90;;;;;;5029951;28;20497;-68
2021/12/19 11:38:26;;;;;;;22.92;4.90;;;8.20;99.90;;;;;;5034798;28;20033;-68
2021/12/19 11:40:52;;;;;;;38.47;5.43;;;8.20;99.90;;;;;;5034782;28;20091;-67
2021/12/19 11:43:18;;;;;;;29.95;4.68;;;8.20;99.90;;;;;;5034658;28;20033;-68
2021/12/19 11:45:55;;;;;;;46.80;6.18;;;8.20;99.90;;;;;;5034617;28;20027;-68
2021/12/19 11:48:26;;;;;;;47.92;7.78;;;8.20;99.90;;;;;;5034982;28;20028;-68
2021/12/19 11:50:56;;;;;;;45.95;5.53;;;8.20;99.90;;;;;;5034637;28;20057;-68
2021/12/19 11:53:33;;;;;;;50.45;5.88;;;8.20;99.90;;;;;;5165010;22;20040;-73
2021/12/19 11:56:06;;;;;;;42.03;6.05;;;8.10;99.90;;;;;;5094966;28;20432;-73
2021/12/19 11:58:49;;;;;;;30.88;5.97;;;8.20;99.90;;;;;;5094947;28;20051;-73
2021/12/19 12:01:29;;;;;;;40.40;6.17;;;8.10;99.90;;;;;;5094627;28;20024;-73
2021/12/19 12:03:56;;;;;;;33.75;5.72;;;8.10;99.90;;;;;;5074211;28;20510;-73
2021/12/19 12:06:32;;;;;;;50.00;4.57;;;8.00;99.90;;;;;;5056267;28;20407;-74
2021/12/19 12:09:04;;;;;;;62.83;9.30;;;8.00;99.90;;;;;;5074879;28;20027;-73
2021/12/19 12:11:31;;;;;;;50.20;7.68;;;7.90;99.90;;;;;;5074801;28;20016;-73
2021/12/19 12:14:23;;;;;;;37.30;6.38;;;8.00;99.90;;;;;;5075456;28;20024;-73
2021/12/19 12:16:56;;;;;;;42.63;7.05;;;7.90;99.90;;;;;;5074517;28;20021;-74
2021/12/19 12:19:39;;;;;;;45.97;6.82;;;7.90;99.90;;;;;;5063169;28;20035;-73
2021/12/19 12:22:34;;;;;;;45.53;8.00;;;7.90;99.90;;;;;;5054750;28;20021;-73
2021/12/19 12:25:11;;;;;;;53.80;7.35;;;7.80;99.90;;;;;;5054573;28;20071;-73
2021/12/19 12:28:08;;;;;;;63.58;7.40;;;7.80;99.90;;;;;;5054653;28;20023;-73
2021/12/19 12:30:40;;;;;;;67.53;8.18;;;7.80;99.90;;;;;;5054761;28;20100;-73
2021/12/19 12:33:09;;;;;;;64.65;7.47;;;7.80;99.90;;;;;;5051751;28;20111;-74
2021/12/19 12:35:40;;;;;;;62.20;8.50;;;7.80;99.90;;;;;;5056171;28;20074;-73
2021/12/19 12:38:07;;;;;;;58.53;8.25;;;7.80;99.90;;;;;;5074278;28;20443;-73
2021/12/19 12:41:25;;;;;;;61.83;8.63;;;7.80;99.90;;;;;;5074394;28;20023;-73
2021/12/19 12:43:34;;;;;;;55.00;7.43;;;7.70;99.90;;;;;;5071605;28;20090;-73
2021/12/19 12:46:15;;;;;;;51.70;7.88;;;7.60;99.90;;;;;;5074025;28;20038;-73
2021/12/19 12:49:02;;;;;;;50.10;8.27;;;7.70;99.90;;;;;;5072842;28;20447;-73
2021/12/19 12:52:07;;;;;;;62.08;9.63;;;7.70;99.90;;;;;;5074431;28;20028;-73
2021/12/19 12:54:37;;;;;;;55.88;9.68;;;7.80;99.90;;;;;;5069209;28;20045;-73
2021/12/19 12:57:11;;;;;;;63.20;9.35;;;7.90;99.90;;;;;;5073566;28;20472;-73
2021/12/19 12:59:39;;;;;;;71.05;8.52;;;8.00;99.90;;;;;;5073654;28;20373;-73
2021/12/19 13:04:46;;;;;;;68.93;10.70;;;8.00;99.90;;;;;;5073798;28;20022;-72
2021/12/19 13:07:13;;;;;;;67.60;9.48;;;8.00;99.90;;;;;;5073214;28;20435;-74
2021/12/19 13:09:50;;;;;;;54.88;7.75;;;8.00;99.90;;;;;;5054850;28;20392;-74
2021/12/19 13:12:18;;;;;;;60.58;8.35;;;8.00;99.90;;;;;;5073421;28;20025;-74
2021/12/19 13:14:51;;;;;;;59.08;9.10;;;8.00;99.90;;;;;;5073669;28;20506;-73
2021/12/19 13:17:24;;;;;;;56.47;7.90;;;8.00;99.90;;;;;;5073847;28;20024;-74
2021/12/19 13:20:11;;;;;;;80.65;8.85;;;8.00;99.90;;;;;;5073469;28;20028;-73
2021/12/19 13:22:47;;;;;;;67.60;9.63;;;8.00;99.90;;;;;;5073539;28;20029;-74
2021/12/19 13:25:28;;;;;;;72.90;9.18;;;8.00;99.90;;;;;;5073346;28;20503;-73
2021/12/19 13:27:59;;;;;;;74.55;10.77;;;8.00;99.90;;;;;;5073220;28;20055;-73
2021/12/19 13:30:25;;;;;;;62.20;9.70;;;8.00;99.90;;;;;;5073211;28;20023;-73
2021/12/19 13:33:05;;;;;;;69.25;9.27;;;7.90;99.90;;;;;;5073657;28;20021;-73
2021/12/19 13:35:36;;;;;;;67.55;9.48;;;7.60;99.90;;;;;;5055043;28;20028;-73
2021/12/19 13:38:19;;;;;;;64.10;9.07;;;7.50;99.90;;;;;;5059255;28;20032;-73
2021/12/19 13:40:57;;;;;;;60.95;10.55;;;7.40;99.90;;;;;;5077591;28;20021;-73
2021/12/19 13:43:25;;;;;;;61.70;8.48;;;7.30;99.90;;;;;;5077547;28;20024;-73
2021/12/19 13:45:57;;;;;;;53.67;7.57;;;7.30;99.90;;;;;;5059045;28;20025;-74
2021/12/19 13:48:29;;;;;;;53.33;8.00;;;7.20;99.90;;;;;;5077087;28;20028;-73
2021/12/19 13:51:12;;;;;;;63.67;8.85;;;7.20;99.90;;;;;;5076862;28;20021;-73
2021/12/19 13:53:40;;;;;;;90.80;10.25;;;7.20;99.90;;;;;;5076558;28;20483;-73
2021/12/19 13:56:27;;;;;;;51.08;8.88;;;7.10;99.90;;;;;;5076748;28;20021;-73
2021/12/19 13:58:59;;;;;;;65.15;10.40;;;7.10;99.90;;;;;;5077035;28;20035;-73